KHNR

Harlan Municipal Airport

Harlan, Iowa, USA
METAR KHNR 170555Z AUTO 02008KT 10SM CLR M01/M02 A3002 RMK AO2
Observed Flight Rules
Dec-17 @ 05:55 UTC (16 minutes ago) Visual Flight Rules
Wind Visibility Clouds
20° at 8 knots 10 miles
  • Clear skies
Temperatures Readings
Current -1°C / 30°F
Dewpoint -2°C / 28°F
Humidity 93%
Altimeter 30.02" Hg
Pressure 1017 hPa
Elevation 375
METAR KHNR 170555Z AUTO 02008KT 10SM CLR M01/M02 A3002 RMK AO2
Observed Flight Rules
Dec-17 @ 05:55 UTC
(16 minutes ago)
VFR
Wind Visibility
20° at 8 knots 10 miles
Clouds
  • Clear skies
Temperature Dewpoint
-1°C / 30°F -2°C / 28°F
Humidity Altimeter Pressure
93% 30.02" Hg 1017 hPa